createdAt,value
2018-02-25T00:00:43.411Z,89.30
2018-02-25T00:03:10.874Z,88.20
2018-02-25T00:05:38.381Z,87.70
2018-02-25T00:08:05.124Z,87.50
2018-02-25T00:10:31.823Z,87.90
2018-02-25T00:12:59.250Z,86.70
2018-02-25T00:15:25.950Z,86.40
2018-02-25T00:17:53.210Z,86.50
2018-02-25T00:20:19.894Z,86.00
2018-02-25T00:22:46.590Z,88.40
2018-02-25T00:25:13.252Z,87.20
2018-02-25T00:27:39.938Z,88.60
2018-02-25T00:30:06.607Z,88.70
2018-02-25T00:32:34.104Z,90.70
2018-02-25T00:35:01.274Z,90.60
2018-02-25T00:37:27.988Z,90.80
2018-02-25T00:39:54.745Z,91.40
2018-02-25T00:42:21.491Z,91.10
2018-02-25T00:44:48.163Z,90.30
2018-02-25T00:47:14.846Z,92.60
2018-02-25T00:49:41.537Z,92.10
2018-02-25T00:52:08.261Z,92.70
2018-02-25T00:54:35.034Z,92.20
2018-02-25T00:57:01.768Z,92.70
2018-02-25T00:59:28.426Z,92.60
2018-02-25T01:01:55.098Z,92.80
2018-02-25T01:04:22.519Z,90.80
2018-02-25T01:06:49.223Z,90.60
2018-02-25T01:09:15.911Z,90.10
2018-02-25T01:11:42.632Z,88.60
2018-02-25T01:14:09.309Z,91.10
2018-02-25T01:16:35.991Z,90.90
2018-02-25T01:19:02.692Z,91.70
2018-02-25T01:21:29.405Z,93.00
2018-02-25T01:23:56.086Z,93.70
2018-02-25T01:26:22.759Z,94.20
2018-02-25T01:28:49.426Z,94.50
2018-02-25T01:31:16.120Z,94.20
2018-02-25T01:33:43.538Z,95.00
2018-02-25T01:36:10.255Z,94.80
2018-02-25T01:41:10.388Z,96.30
2018-02-25T01:43:37.094Z,96.70
2018-02-25T01:46:03.759Z,95.80
2018-02-25T01:48:31.193Z,96.90
2018-02-25T01:51:03.859Z,96.80
2018-02-25T01:53:30.549Z,97.30
2018-02-25T01:55:57.989Z,98.50
2018-02-25T01:58:24.675Z,98.30
2018-02-25T02:00:51.364Z,98.00
2018-02-25T02:03:18.048Z,97.70
2018-02-25T02:05:44.742Z,97.70
2018-02-25T02:08:11.387Z,98.40
2018-02-25T02:10:38.078Z,98.30
2018-02-25T02:13:04.876Z,98.30
2018-02-25T02:15:31.583Z,98.30
2018-02-25T02:17:58.286Z,97.70
2018-02-25T02:20:25.843Z,96.90
2018-02-25T02:22:52.579Z,96.90
2018-02-25T02:25:19.288Z,96.60
2018-02-25T02:27:45.987Z,97.00
2018-02-25T02:30:13.417Z,98.20
2018-02-25T02:32:40.114Z,98.10
2018-02-25T02:35:06.788Z,99.00
2018-02-25T02:37:33.528Z,99.40
2018-02-25T02:40:00.254Z,99.00
2018-02-25T02:42:27.762Z,99.80
2018-02-25T02:44:54.577Z,99.50
2018-02-25T02:47:28.422Z,99.00
2018-02-25T02:49:55.112Z,98.70
2018-02-25T02:52:21.803Z,99.00
2018-02-25T02:54:48.483Z,99.20
2018-02-25T02:57:15.150Z,99.80
2018-02-25T02:59:41.906Z,99.90
2018-02-25T03:02:08.618Z,99.90
2018-02-25T03:04:35.267Z,99.90
2018-02-25T03:07:01.975Z,99.90
2018-02-25T03:09:28.693Z,99.90
2018-02-25T03:11:55.419Z,99.90
2018-02-25T03:14:22.107Z,99.90
2018-02-25T03:16:49.614Z,99.90
2018-02-25T03:19:16.307Z,99.90
2018-02-25T03:21:43.644Z,99.90
2018-02-25T03:24:10.317Z,99.90
2018-02-25T03:26:37.740Z,99.90
2018-02-25T03:29:04.622Z,99.90
2018-02-25T03:31:32.246Z,99.90
2018-02-25T03:33:59.015Z,99.90
2018-02-25T03:36:25.714Z,99.90
2018-02-25T03:38:52.436Z,99.90
2018-02-25T03:41:19.887Z,99.90
2018-02-25T03:43:47.318Z,99.90
2018-02-25T03:46:14.003Z,99.90
2018-02-25T03:48:40.703Z,99.90
2018-02-25T03:51:07.359Z,99.90
2018-02-25T03:53:34.028Z,99.90
2018-02-25T03:56:01.455Z,99.90
2018-02-25T03:58:28.156Z,99.90
2018-02-25T04:00:54.828Z,99.90
2018-02-25T04:03:21.510Z,99.90
2018-02-25T04:05:48.934Z,99.90
2018-02-25T04:08:15.593Z,99.90
2018-02-25T04:10:42.293Z,99.90
2018-02-25T04:13:08.997Z,99.90
2018-02-25T04:15:36.433Z,99.90
2018-02-25T04:18:03.186Z,99.90
2018-02-25T04:20:29.882Z,99.90
2018-02-25T04:22:56.553Z,99.90
2018-02-25T04:25:23.230Z,99.90
2018-02-25T04:27:50.678Z,99.90
2018-02-25T04:30:17.364Z,99.90
2018-02-25T04:32:44.044Z,99.90
2018-02-25T04:35:10.727Z,99.90
2018-02-25T04:37:38.157Z,99.90
2018-02-25T04:40:04.870Z,99.90
2018-02-25T04:42:31.582Z,99.90
2018-02-25T04:44:58.990Z,99.90
2018-02-25T04:47:25.679Z,99.90
2018-02-25T04:49:52.372Z,99.90
2018-02-25T04:52:19.027Z,99.90
2018-02-25T04:54:45.703Z,99.90
2018-02-25T04:57:13.111Z,99.90
2018-02-25T04:59:39.790Z,99.90
2018-02-25T05:02:07.246Z,99.90
2018-02-25T05:04:33.933Z,99.90
2018-02-25T05:07:00.596Z,99.90
2018-02-25T05:09:27.259Z,99.90
2018-02-25T05:11:53.967Z,99.90
2018-02-25T05:14:20.652Z,99.90
2018-02-25T05:16:47.351Z,99.90
2018-02-25T05:19:14.038Z,99.90
2018-02-25T05:21:40.709Z,99.90
2018-02-25T05:24:08.129Z,99.90
2018-02-25T05:26:34.798Z,99.90
2018-02-25T05:29:01.511Z,99.90
2018-02-25T05:31:28.236Z,99.90
2018-02-25T05:33:54.912Z,99.90
2018-02-25T05:36:21.575Z,99.90
2018-02-25T05:38:49.012Z,99.90
2018-02-25T05:41:15.702Z,99.90
2018-02-25T05:43:42.378Z,99.90
2018-02-25T05:46:09.074Z,99.90
2018-02-25T05:48:36.459Z,99.90
2018-02-25T05:51:03.165Z,99.90
2018-02-25T05:53:30.572Z,99.90
2018-02-25T05:55:57.241Z,99.90
2018-02-25T05:58:23.919Z,99.90
2018-02-25T06:00:51.398Z,99.90
2018-02-25T06:03:18.062Z,99.90
2018-02-25T06:05:44.722Z,99.90
2018-02-25T06:08:11.386Z,99.90
2018-02-25T06:10:38.126Z,99.90
2018-02-25T06:13:04.829Z,99.90
2018-02-25T06:15:32.255Z,93.10
2018-02-25T06:17:59.658Z,87.50
2018-02-25T06:20:26.363Z,87.30
2018-02-25T06:22:53.828Z,71.00
2018-02-25T06:25:21.269Z,63.70
2018-02-25T06:27:48.696Z,58.10
2018-02-25T06:30:15.385Z,57.50
2018-02-25T06:32:42.830Z,49.60
2018-02-25T06:35:09.555Z,49.60
2018-02-25T06:37:36.263Z,49.20
2018-02-25T06:40:03.027Z,47.30
2018-02-25T06:42:29.698Z,44.80
2018-02-25T06:44:56.386Z,43.70
2018-02-25T06:47:23.081Z,42.30
2018-02-25T06:49:49.809Z,42.50
2018-02-25T06:52:16.462Z,42.60
2018-02-25T06:54:43.128Z,40.10
2018-02-25T06:57:10.564Z,37.80
2018-02-25T06:59:37.285Z,37.80
2018-02-25T07:02:03.971Z,35.50
2018-02-25T07:04:30.678Z,35.30
2018-02-25T07:06:57.380Z,34.50
2018-02-25T07:09:24.043Z,33.30
2018-02-25T07:11:50.771Z,33.40
2018-02-25T07:14:17.422Z,32.00
2018-02-25T07:16:44.109Z,30.40
2018-02-25T07:19:11.593Z,30.10
2018-02-25T07:21:39.012Z,28.90
2018-02-25T07:24:05.713Z,28.90
2018-02-25T07:26:33.171Z,26.20
2018-02-25T07:29:00.614Z,27.30
2018-02-25T07:31:27.363Z,27.30
2018-02-25T07:33:54.876Z,26.90
2018-02-25T07:36:21.626Z,26.40
2018-02-25T07:38:48.289Z,26.00
2018-02-25T07:41:14.991Z,25.00
2018-02-25T07:43:41.655Z,25.10
2018-02-25T07:46:08.312Z,24.80
2018-02-25T07:48:34.980Z,25.00
2018-02-25T07:51:01.690Z,24.20
2018-02-25T07:53:28.371Z,24.80
2018-02-25T07:55:55.823Z,24.20
2018-02-25T07:58:23.321Z,22.40
2018-02-25T08:00:50.024Z,22.30
2018-02-25T08:03:16.714Z,23.30
2018-02-25T08:05:43.448Z,23.40
2018-02-25T08:08:10.125Z,24.30
2018-02-25T08:10:36.819Z,23.00
2018-02-25T08:13:04.260Z,22.00
2018-02-25T08:15:30.982Z,22.00
2018-02-25T08:17:57.647Z,20.40
2018-02-25T08:20:24.343Z,20.20
2018-02-25T08:22:51.055Z,20.10
2018-02-25T08:25:18.442Z,21.70
2018-02-25T08:27:45.130Z,21.60
2018-02-25T08:30:11.842Z,20.10
2018-02-25T08:32:38.517Z,20.30
2018-02-25T08:35:05.212Z,18.90
2018-02-25T08:37:31.897Z,18.60
2018-02-25T08:39:58.619Z,19.00
2018-02-25T08:42:25.300Z,19.90
2018-02-25T08:44:52.719Z,20.20
2018-02-25T08:47:19.416Z,20.30
2018-02-25T08:49:46.830Z,20.30
2018-02-25T08:52:13.539Z,20.20
2018-02-25T08:54:40.226Z,19.80
2018-02-25T08:57:06.893Z,18.80
2018-02-25T08:59:33.567Z,20.80
2018-02-25T09:02:00.282Z,20.60
2018-02-25T09:04:27.796Z,19.40
2018-02-25T09:06:55.098Z,18.90
2018-02-25T09:09:21.776Z,17.70
2018-02-25T09:11:48.531Z,19.10
2018-02-25T09:14:15.260Z,19.70
2018-02-25T09:16:41.943Z,20.50
2018-02-25T09:19:08.660Z,19.00
2018-02-25T09:21:35.325Z,19.60
2018-02-25T09:24:02.003Z,19.20
2018-02-25T09:26:29.471Z,19.10
2018-02-25T09:28:56.878Z,18.60
2018-02-25T09:31:23.616Z,18.60
2018-02-25T09:33:50.467Z,19.80
2018-02-25T09:36:17.184Z,20.00
2018-02-25T09:38:43.888Z,19.70
2018-02-25T09:41:10.649Z,19.80
